ADDS METAR Data INFO
IDs: Format: Raw Decoded Include TAF

Data at: 0513 UTC 21 Feb 2018

KADH 201515Z AUTO 16016G22KT 7SM VCTSRA SCT013 BKN026 OVC095 17/17 A2986 RMK AO2 LTG DSNT E THRU SW P0002
KADH 201455Z AUTO 16014G19KT 10SM -VCTSRA SCT020 BKN060 OVC095 17/17 A2987 RMK AO2 LTG DSNT SE AND S P0005
KADH 201435Z AUTO 17018G22KT 7SM -RA SCT023 BKN060 OVC085 17/17 A2988 RMK AO2 LTG DSNT S P0004
KADH 201415Z AUTO 17017G21KT 7SM -RA SCT013 SCT034 OVC085 17/17 A2987 RMK AO2 P0001
KADH 201355Z AUTO 16013KT 7SM RA SCT034 SCT065 OVC095 18/17 A2986 RMK AO2 LTG DSNT SW THRU N P0002
KADH 201335Z AUTO 16013G17KT 10SM -VCTSRA SCT023 BKN095 OVC110 18/16 A2982 RMK AO2 LTG DSNT N AND NW P0001
KADH 201315Z AUTO 19009KT 10SM BKN110 18/16 A2982 RMK AO2 LTG DSNT N AND NW
KADH 201255Z AUTO 17011G17KT 10SM SCT110 18/17 A2980 RMK AO2 LTG DSNT NE AND W
KADH 201235Z AUTO 16011G20KT 10SM SCT110 19/17 A2979 RMK AO2 LTG DSNT NE AND W
KADH 201215Z AUTO 16012G17KT 10SM -RA SCT024 SCT036 BKN110 19/18 A2980 RMK AO2 LTG DSNT NE
KADH 201155Z AUTO 17010KT 10SM VCTS SCT021 SCT027 BKN036 18/18 A2982 RMK AO2 LTG DSNT NE
KADH 201135Z AUTO 17010KT 10SM -VCTSRA SCT019 BKN027 BKN036 18/18 A2981 RMK AO2 LTG DSNT N THRU SE
KADH 201115Z AUTO 19010KT 10SM -VCTSDZ SCT014 BKN026 OVC110 18/18 A2982 RMK AO2 LTG DSNT NE THRU SE
KADH 201055Z AUTO 16013KT 10SM -RA BKN014 BKN025 OVC120 18/18 A2982 RMK AO2
KADH 201035Z AUTO 19008G15KT 10SM VCTSRA BKN015 OVC021 19/18 A2982 RMK AO2 LTG DSNT S
KADH 201015Z AUTO 16009KT 10SM OVC017 19/17 A2980 RMK AO2
KADH 200955Z AUTO 16010G15KT 10SM OVC015 19/17 A2981 RMK AO2
KADH 200935Z AUTO 16010G14KT 10SM OVC015 19/17 A2981 RMK AO2
KADH 200915Z AUTO 16010KT 10SM OVC015 19/17 A2980 RMK AO2
KADH 200855Z AUTO 16011G16KT 10SM OVC017 19/17 A2980 RMK AO2
KADH 200835Z AUTO 16013G17KT 10SM OVC017 19/17 A2981 RMK AO2
KADH 200815Z AUTO 16010G16KT 10SM OVC019 19/17 A2981 RMK AO2
KADH 200755Z AUTO 16012KT 10SM OVC019 19/17 A2981 RMK AO2
KADH 200735Z AUTO 16010G15KT 10SM OVC019 19/17 A2981 RMK AO2
KADH 200715Z AUTO 17011G17KT 10SM OVC019 19/16 A2980 RMK AO2
KADH 200655Z AUTO 18009G16KT 10SM OVC021 19/16 A2981 RMK AO2
KADH 200635Z AUTO 17011G17KT 10SM OVC021 19/16 A2980 RMK AO2
KADH 200615Z AUTO 17010G19KT 10SM OVC023 19/16 A2980 RMK AO2
KADH 200555Z AUTO 16011G18KT 10SM OVC023 19/16 A2979 RMK AO2
KADH 200535Z AUTO 16013G18KT 10SM OVC023 19/16 A2979 RMK AO2
KADH 200515Z AUTO 16011G16KT 10SM OVC025 19/16 A2978 RMK AO2
KADH 200455Z AUTO 15016G21KT 10SM BKN027 OVC033 19/17 A2978 RMK AO2 P0001
KADH 200440Z AUTO 16012KT 10SM BKN027 OVC033 19/17 A2978 RMK AO2 P0001
KADH 200410Z AUTO 18012KT 10SM SCT021 BKN025 OVC031 19/17 A2979 RMK AO2 P0001
KADH 200355Z AUTO 18014G20KT 10SM -RA SCT021 BKN029 OVC060 19/17 A2978 RMK AO2 LTG DSNT NW P0001
KADH 200335Z AUTO 16016G21KT 10SM +RA SCT027 SCT039 BKN075 20/17 A2978 RMK AO2 LTG DSNT NE THRU SE P0001
KADH 200315Z AUTO 16013G20KT 10SM SCT075 20/16 A2977 RMK AO2 LTG DSNT E AND SE
KADH 200255Z AUTO 15010KT 10SM CLR 19/16 A2976 RMK AO2 LTG DSNT E AND SE
KADH 200235Z AUTO 15010KT 10SM SCT032 SCT075 SCT110 19/16 A2977 RMK AO2
KADH 200215Z AUTO 15010KT 10SM SCT075 SCT110 19/16 A2978 RMK AO2 LTG DSNT E
KADH 200155Z AUTO 15011KT 10SM SCT075 SCT110 19/16 A2977 RMK AO2 LTG DSNT E
KADH 200135Z AUTO 15010KT 10SM SCT075 SCT110 19/16 A2978 RMK AO2
KADH 200115Z AUTO 16009KT 10SM SCT075 SCT110 19/16 A2978 RMK AO2
KADH 200055Z AUTO 15007KT 10SM SCT050 SCT120 19/17 A2978 RMK AO2
KADH 200035Z AUTO 16006KT 10SM SCT048 BKN080 18/17 A2978 RMK AO2 LTG DSNT E
KADH 200015Z AUTO 16008KT 10SM BKN048 BKN060 OVC080 19/17 A2978 RMK AO2
KADH 192355Z AUTO 17009G14KT 10SM BKN050 BKN085 BKN120 19/17 A2978 RMK AO2
KADH 192335Z AUTO 17011KT 10SM SCT020 BKN049 OVC085 19/17 A2977 RMK AO2
KADH 192315Z AUTO 18012G19KT 10SM SCT022 BKN029 OVC047 20/17 A2978 RMK AO2 LTG DSNT NE
KADH 192255Z AUTO 18015G19KT 10SM SCT022 BKN028 OVC050 20/16 A2977 RMK AO2 LTG DSNT N AND NE
KADH 192235Z AUTO 17012KT 10SM SCT029 SCT045 OVC050 20/17 A2977 RMK AO2 LTG DSNT N AND NE
KADH 192215Z AUTO 16010KT 7SM -DZ SCT027 BKN042 OVC080 19/18 A2976 RMK AO2 LTG DSNT N AND NE
KADH 192150Z AUTO 17010KT 10SM -VCTSRA SCT031 BKN050 OVC065 19/18 A2977 RMK AO2 LTG DSNT NE AND NW
KADH 192135Z AUTO 17012G16KT 10SM VCTSRA SCT031 SCT043 BKN055 20/17 A2977 RMK AO2 LTG DSNT ALQS
KADH 192115Z AUTO 17009G17KT 10SM VCTS SCT046 BKN055 BKN065 20/17 A2977 RMK AO2 LTG DSNT SW THRU N
KADH 192055Z AUTO 17011KT 10SM VCTS SCT022 SCT055 OVC065 21/17 A2977 RMK AO2 LTG DSNT SW THRU N
KADH 192035Z AUTO 17010G16KT 10SM SCT024 SCT050 OVC065 21/17 A2977 RMK AO2 LTG DSNT W
KADH 192015Z AUTO 17010G15KT 10SM OVC050 21/17 A2978 RMK AO2 LTG DSNT NW
KADH 191955Z AUTO 17010KT 10SM OVC049 21/17 A2978 RMK AO2
KADH 191935Z AUTO 17011G17KT 10SM SCT025 BKN044 OVC065 21/17 A2978 RMK AO2
KADH 191915Z AUTO 18010KT 10SM BKN023 BKN029 OVC048 20/17 A2979 RMK AO2
KADH 191855Z AUTO 16010KT 10SM SCT021 BKN040 OVC047 20/17 A2979 RMK AO2
KADH 191835Z AUTO 17010G14KT 10SM SCT021 BKN040 OVC046 20/17 A2980 RMK AO2
KADH 191815Z AUTO 17013G16KT 10SM SCT040 OVC047 20/17 A2981 RMK AO2
KADH 191755Z AUTO 16010G15KT 10SM SCT037 OVC047 20/18 A2982 RMK AO2
KADH 191735Z AUTO 17009KT 10SM SCT019 OVC037 19/18 A2983 RMK AO2
KADH 191715Z AUTO 16008KT 10SM OVC039 18/18 A2983 RMK AO2